Hauptseite
METAR-TAF:

METAR-TAF

Flughäfen :

Wings Field

Philadelphia / Blue Bell, Pennsylvania, Vereinigte Staaten

Breite: 40-08-15N, Länge: 075-15-54W, Höhe: 92 m

Beobachtung

Neuester Wetterbericht von vor 30 Minuten, um 19:55 UTC
Wind 5 kt aus Süd/Südwest
Temperatur 9°C
Luftfeuchtigkeit 93%
Luftdruck 1013 hPa
Sichtweite: 6.4 km
Geschlossene Wolkendecke in der Höhe von 500 ft
Regen, feuchter Dunst

METAR: KLOM 091955Z AUTO 20005KT 4SM RA BR OVC005 09/08 A2991 RMK AO2 P0011 T00870084

Zeit: 15:25 (20:25 UTC)


TAF: fehlend

Wetterbeobachtungen und Prognosen von mehr als 4000 Flughäfen (METAR und TAF Bericht).

Die verfügbaren Stationen werden durch gelbe und rote Markierungen auf der Karte dargestellt.

Führen Sie die Maus auf sie, um den Namen der Station zu sehen.

Darauf klicken, um die Beobachtung von Wetterbeobachtungen und Prognosen zu sehen.

Um die Karte zu ändern : klicken Sie auf den grünen Tasten mit einem schwarzen Kreuz Zum Vergrößern, auf den grünen Button mit einem Gedankenstrich zu verkleinern, oder auf die grünen Pfeile für benachbarte Karten.


METAR-TAF: